Time;durP1;ratioP1;P1;durP2;ratioP2;P2;SDS_P1;SDS_P2;PMS_P1;PMS_P2;Temp;Humidity;BMP_temperature;BMP_pressure;BME280_temperature;BME280_humidity;BME280_pressure;Samples;Min_cycle;Max_cycle;Signal;HPM_P1;HPM_P2
2022/04/23 00:02:09;;;;;;;15.27;6.75;;;;;;;5.98;34.13;99370.13;5083308;27;20047;-78
2022/04/23 00:04:36;;;;;;;22.83;6.90;;;;;;;5.92;34.33;99365.19;5116930;27;20051;-78
2022/04/23 00:07:04;;;;;;;25.63;8.23;;;;;;;5.94;34.75;99373.91;5083211;27;20119;-78
2022/04/23 00:09:30;;;;;;;24.98;8.25;;;;;;;5.92;34.84;99359.88;5116742;27;20129;-78
2022/04/23 00:11:58;;;;;;;29.65;8.40;;;;;;;5.94;35.04;99365.97;5083229;27;20381;-79
2022/04/23 00:14:25;;;;;;;19.27;7.85;;;;;;;5.93;35.11;99369.53;5116956;27;20050;-78
2022/04/23 00:16:53;;;;;;;20.17;8.20;;;;;;;5.90;35.46;99377.63;5135339;27;20039;-78
2022/04/23 00:19:20;;;;;;;24.67;9.23;;;;;;;5.87;35.63;99372.53;5100006;27;20054;-78
2022/04/23 00:21:46;;;;;;;42.65;9.23;;;;;;;5.85;35.53;99374.41;5082911;27;20046;-79
2022/04/23 00:24:12;;;;;;;24.83;7.93;;;;;;;5.87;35.80;99372.53;5116768;27;20070;-77
2022/04/23 00:26:40;;;;;;;20.15;8.18;;;;;;;5.80;35.93;99365.91;5100398;27;20043;-78
2022/04/23 00:29:06;;;;;;;18.00;7.90;;;;;;;5.84;36.29;99370.06;5116855;27;20098;-78
2022/04/23 00:31:32;;;;;;;20.27;7.90;;;;;;;5.84;36.36;99367.41;5116728;27;20196;-78
2022/04/23 00:33:58;;;;;;;20.85;7.38;;;;;;;5.87;36.30;99376.97;5116627;27;20047;-78
2022/04/23 00:36:24;;;;;;;16.75;6.40;;;;;;;5.86;36.45;99378.78;5099508;27;20490;-79
2022/04/23 00:38:52;;;;;;;12.77;6.82;;;;;;;5.85;36.60;99369.13;5082518;27;20050;-78
2022/04/23 00:44:07;;;;;;;24.17;8.38;;;;;;;5.80;36.64;99376.50;5099291;27;20076;-79
2022/04/23 00:46:33;;;;;;;21.98;7.20;;;;;;;5.84;37.10;99378.03;5134787;27;20035;-78
2022/04/23 00:48:59;;;;;;;20.73;7.47;;;;;;;5.76;36.96;99364.38;5116546;27;20405;-79
2022/04/23 00:51:29;;;;;;;42.20;9.27;;;;;;;5.75;37.34;99367.94;5134562;27;20070;-79
2022/04/23 00:54:04;;;;;;;24.02;9.20;;;;;;;5.69;36.81;99365.69;5082325;27;20035;-79
2022/04/23 00:56:31;;;;;;;40.58;9.77;;;;;;;5.77;36.75;99374.03;5099208;27;20050;-79
2022/04/23 00:58:57;;;;;;;36.33;9.88;;;;;;;5.74;36.67;99375.06;5116013;27;20126;-78
2022/04/23 01:01:24;;;;;;;35.97;8.18;;;;;;;5.79;36.38;99380.09;5134150;27;20129;-77
2022/04/23 01:03:51;;;;;;;41.45;10.27;;;;;;;5.69;36.74;99365.69;5098888;27;20196;-77
2022/04/23 01:06:18;;;;;;;46.40;11.23;;;;;;;5.75;36.58;99381.22;5116333;27;20172;-77
2022/04/23 01:08:45;;;;;;;26.98;7.00;;;;;;;5.72;36.59;99362.84;5082223;27;20039;-79
2022/04/23 01:11:11;;;;;;;21.77;7.13;;;;;;;5.75;36.53;99379.41;5133910;27;20489;-79
2022/04/23 01:13:36;;;;;;;44.05;8.10;;;;;;;5.78;36.55;99381.03;5115904;27;20047;-77
2022/04/23 01:16:05;;;;;;;18.13;6.38;;;;;;;5.81;36.18;99386.16;5098946;27;20047;-79
2022/04/23 01:18:32;;;;;;;18.00;6.40;;;;;;;5.77;36.50;99382.00;5098761;27;20039;-78
2022/04/23 01:21:02;;;;;;;16.63;6.75;;;;;;;5.83;36.46;99390.44;5115677;27;20488;-79
2022/04/23 01:23:29;;;;;;;32.40;7.90;;;;;;;5.89;36.40;99383.91;5116093;27;20114;-77
2022/04/23 01:25:56;;;;;;;25.08;6.90;;;;;;;5.94;36.28;99384.53;5134200;27;20503;-78
2022/04/23 01:28:23;;;;;;;17.50;6.85;;;;;;;5.97;36.45;99384.31;5081827;28;20089;-77
2022/04/23 01:30:50;;;;;;;29.85;7.55;;;;;;;6.10;36.60;99392.41;5081795;27;20489;-78
2022/04/23 01:33:17;;;;;;;23.33;7.28;;;;;;;6.20;36.41;99400.66;5115554;27;20047;-78
2022/04/23 01:35:46;;;;;;;22.98;8.25;;;;;;;6.23;36.30;99388.03;5115820;27;20039;-78
2022/04/23 01:38:13;;;;;;;23.15;7.35;;;;;;;6.22;36.20;99382.84;5098428;28;20047;-80
2022/04/23 01:40:40;;;;;;;18.92;7.88;;;;;;;6.26;36.48;99395.81;5081737;28;20050;-78
2022/04/23 01:43:08;;;;;;;44.15;8.43;;;;;;;6.24;36.60;99387.13;5098555;28;20485;-78
2022/04/23 01:45:35;;;;;;;27.88;7.65;;;;;;;6.22;36.34;99374.88;5098738;28;20046;-79
2022/04/23 01:48:01;;;;;;;19.02;7.65;;;;;;;6.38;36.67;99396.84;5082010;28;20039;-78
2022/04/23 01:50:27;;;;;;;33.75;8.18;;;;;;;6.46;36.53;99401.69;5098370;28;20390;-78
2022/04/23 01:52:53;;;;;;;45.80;8.65;;;;;;;6.46;36.83;99391.91;5115355;28;20125;-78
2022/04/23 01:55:19;;;;;;;38.25;9.20;;;;;;;6.51;36.69;99395.16;5115657;28;20142;-77
2022/04/23 01:57:45;;;;;;;32.17;7.80;;;;;;;6.53;36.91;99393.25;5136667;27;20094;-78
2022/04/23 02:00:14;;;;;;;46.50;8.85;;;;;;;6.64;37.03;99399.69;5086189;27;20039;-78
2022/04/23 02:02:41;;;;;;;40.38;8.27;;;;;;;6.69;37.16;99402.91;5103059;27;20099;-79
2022/04/23 02:05:09;;;;;;;59.65;10.55;;;;;;;6.74;37.44;99395.53;5102648;27;20090;-78
2022/04/23 02:07:39;;;;;;;48.33;9.93;;;;;;;6.80;37.48;99398.63;5137963;27;20039;-78
2022/04/23 02:10:07;;;;;;;49.50;10.68;;;;;;;6.82;37.72;99398.53;5102418;27;20410;-79
2022/04/23 02:12:33;;;;;;;55.45;10.30;;;;;;;6.89;37.42;99394.53;5119345;27;20051;-79
2022/04/23 02:15:00;;;;;;;55.15;10.68;;;;;;;6.92;37.72;99383.72;5119575;27;20039;-79
2022/04/23 02:17:37;;;;;;;60.53;13.23;;;;;;;7.05;37.85;99395.25;5085571;27;20035;-80
2022/04/23 02:20:09;;;;;;;57.35;11.52;;;;;;;7.09;38.08;99398.56;5119333;27;20204;-80
2022/04/23 02:22:35;;;;;;;47.95;10.43;;;;;;;7.06;38.26;99398.75;5117107;27;20058;-79
2022/04/23 02:25:02;;;;;;;40.05;10.13;;;;;;;6.94;38.98;99400.41;5098609;28;20044;-79
2022/04/23 02:27:45;;;;;;;43.50;8.88;;;;;;;6.86;39.38;99405.34;5082668;28;20044;-80
2022/04/23 02:30:14;;;;;;;42.17;9.82;;;;;;;6.80;38.86;99401.28;5098441;28;20089;-78
2022/04/23 02:32:41;;;;;;;57.13;10.13;;;;;;;6.90;38.65;99398.91;5098311;28;20518;-78
2022/04/23 02:35:08;;;;;;;33.75;9.77;;;;;;;6.99;38.75;99403.59;5081401;28;20406;-79
2022/04/23 02:37:34;;;;;;;56.47;10.48;;;;;;;7.11;38.76;99406.44;5081553;28;20387;-78
2022/04/23 02:40:08;;;;;;;59.58;9.05;;;;;;;7.10;38.58;99402.06;5081406;28;20040;-79
2022/04/23 02:42:36;;;;;;;66.32;11.10;;;;;;;7.17;38.38;99404.22;5081235;28;20051;-78
2022/04/23 02:45:03;;;;;;;40.28;8.50;;;;;;;7.30;38.30;99412.28;5116304;28;20089;-79
2022/04/23 02:47:51;;;;;;;45.45;9.70;;;;;;;7.40;38.19;99407.19;5084948;27;20038;-81
2022/04/23 02:50:28;;;;;;;41.22;9.00;;;;;;;7.43;38.77;99405.19;5110126;27;20069;-79
2022/04/23 02:52:55;;;;;;;43.70;10.27;;;;;;;7.54;38.46;99413.31;5101634;27;20047;-80
2022/04/23 02:55:22;;;;;;;38.00;11.68;;;;;;;7.60;38.29;99405.84;5136751;27;20043;-79
2022/04/23 02:57:48;;;;;;;52.33;16.27;;;;;;;7.58;38.84;99419.28;5084239;27;20129;-79
2022/04/23 03:00:15;;;;;;;58.95;23.02;;;;;;;7.39;39.09;99411.66;5118219;27;20136;-80
2022/04/23 03:02:42;;;;;;;40.63;24.40;;;;;;;7.55;38.80;99415.00;5100830;27;20053;-80
2022/04/23 03:05:11;;;;;;;37.05;22.65;;;;;;;7.71;38.67;99413.97;5118286;27;20043;-79
2022/04/23 03:07:38;;;;;;;60.53;17.85;;;;;;;7.77;39.00;99414.41;5100963;27;20231;-79
2022/04/23 03:10:09;;;;;;;37.30;14.82;;;;;;;7.67;39.20;99417.78;5118436;27;20054;-79
2022/04/23 03:12:38;;;;;;;41.97;13.38;;;;;;;7.66;39.57;99421.41;5118457;27;20175;-79
2022/04/23 03:15:05;;;;;;;25.73;11.38;;;;;;;7.68;39.46;99416.88;5101027;27;20103;-79
2022/04/23 03:17:31;;;;;;;29.70;12.65;;;;;;;7.87;39.11;99419.13;5098791;27;20039;-80
2022/04/23 03:19:58;;;;;;;49.42;11.88;;;;;;;7.98;39.22;99417.44;5127206;27;20390;-78
2022/04/23 03:22:24;;;;;;;32.65;9.85;;;;;;;8.00;39.81;99415.53;5101276;27;20118;-78
2022/04/23 03:24:50;;;;;;;41.33;11.07;;;;;;;8.15;39.20;99413.63;5118058;27;20501;-79
2022/04/23 03:27:16;;;;;;;45.50;9.70;;;;;;;8.27;39.51;99411.91;5101134;27;20516;-79
2022/04/23 03:29:42;;;;;;;29.75;7.85;;;;;;;8.46;39.20;99414.19;5100770;27;20043;-79
2022/04/23 03:32:10;;;;;;;21.95;7.93;;;;;;;8.68;39.24;99422.34;5136114;27;20039;-78
2022/04/23 03:34:37;;;;;;;28.33;7.93;;;;;;;8.85;38.91;99412.34;5117543;27;20038;-80
2022/04/23 03:37:04;;;;;;;19.10;5.75;;;;;;;9.09;38.78;99418.53;5083634;27;20043;-79
2022/04/23 03:39:32;;;;;;;19.95;4.65;;;;;;;9.17;38.70;99423.31;5100398;27;20493;-79
2022/04/23 03:42:01;;;;;;;12.23;3.75;;;;;;;9.29;38.57;99417.09;5135627;27;20066;-80
2022/04/23 03:44:29;;;;;;;13.95;3.70;;;;;;;9.49;38.67;99424.47;5135566;27;20046;-79
2022/04/23 03:46:57;;;;;;;12.43;3.65;;;;;;;9.69;38.42;99414.97;5099178;27;20036;-79
2022/04/23 03:49:23;;;;;;;14.60;3.58;;;;;;;9.83;37.86;99416.59;5123450;27;20051;-81
2022/04/23 03:51:50;;;;;;;19.83;3.80;;;;;;;10.00;37.58;99417.97;5100027;27;20504;-81
2022/04/23 03:54:19;;;;;;;9.30;3.72;;;;;;;10.18;37.44;99423.72;5117243;27;20055;-79
2022/04/23 03:56:46;;;;;;;9.77;3.38;;;;;;;10.21;37.16;99405.66;5100097;27;20042;-80
2022/04/23 03:59:13;;;;;;;22.52;4.20;;;;;;;10.26;36.91;99421.34;5099822;27;20039;-80
2022/04/23 04:01:38;;;;;;;10.82;3.20;;;;;;;10.36;37.15;99422.34;5100114;27;20084;-80
2022/04/23 04:04:05;;;;;;;10.23;3.38;;;;;;;10.43;36.67;99420.06;5116797;27;20145;-79
2022/04/23 04:06:31;;;;;;;8.77;3.20;;;;;;;10.55;36.56;99426.25;5099722;27;20508;-79
2022/04/23 04:08:56;;;;;;;10.40;3.35;;;;;;;10.72;36.71;99420.44;5090886;27;20039;-80
2022/04/23 04:11:22;;;;;;;6.53;3.28;;;;;;;10.84;36.63;99416.78;5088604;27;20409;-79
2022/04/23 04:13:48;;;;;;;8.02;2.95;;;;;;;11.02;36.28;99424.28;5076157;27;20043;-80
2022/04/23 04:16:15;;;;;;;8.68;3.63;;;;;;;11.17;35.89;99425.75;5093726;27;20412;-80
2022/04/23 04:18:41;;;;;;;11.30;3.95;;;;;;;11.22;35.57;99428.88;5082781;27;20043;-81
2022/04/23 04:21:07;;;;;;;12.95;3.97;;;;;;;11.15;35.81;99419.66;5134494;27;20039;-79
2022/04/23 04:23:34;;;;;;;7.25;3.80;;;;;;;11.21;35.74;99420.97;5099501;27;20088;-79
2022/04/23 04:26:00;;;;;;;13.30;3.63;;;;;;;11.29;35.71;99419.38;5099826;27;20043;-82
2022/04/23 04:28:26;;;;;;;13.70;3.85;;;;;;;11.36;35.66;99420.59;5082868;27;20531;-79
2022/04/23 04:33:36;;;;;;;9.73;3.47;;;;;;;11.70;35.27;99409.75;5101197;28;20451;-82
2022/04/23 04:36:03;;;;;;;25.70;3.75;;;;;;;11.79;35.15;99411.66;5114134;28;20043;-79
2022/04/23 04:38:30;;;;;;;8.02;3.13;;;;;;;11.77;35.36;99418.09;5116325;27;20040;-87
2022/04/23 04:40:56;;;;;;;7.10;3.05;;;;;;;11.70;35.33;99407.09;5062890;28;20039;-77
2022/04/23 04:43:22;;;;;;;4.80;3.05;;;;;;;11.85;35.13;99411.19;5113935;28;20047;-78
2022/04/23 04:45:48;;;;;;;26.75;3.20;;;;;;;12.08;35.07;99411.06;5078859;28;20084;-78
2022/04/23 04:48:15;;;;;;;10.13;3.20;;;;;;;12.11;34.53;99403.63;5095363;28;20040;-82
2022/04/23 04:50:41;;;;;;;12.82;2.97;;;;;;;12.11;34.39;99405.41;5077502;28;20040;-79
2022/04/23 04:53:07;;;;;;;7.75;2.72;;;;;;;12.09;34.42;99402.03;5095711;28;20592;-81
2022/04/23 04:55:36;;;;;;;5.97;2.60;;;;;;;12.26;34.38;99409.50;5078703;28;20139;-80
2022/04/23 04:58:02;;;;;;;10.88;3.13;;;;;;;12.28;33.97;99396.78;5078651;28;20040;-82
2022/04/23 05:00:30;;;;;;;11.52;3.03;;;;;;;12.43;33.77;99399.97;5100410;27;20031;-77
2022/04/23 05:02:56;;;;;;;9.75;3.05;;;;;;;12.64;33.50;99402.63;5124972;27;20142;-78
2022/04/23 05:05:22;;;;;;;4.40;2.50;;;;;;;12.75;32.96;99402.53;5115266;27;20508;-78
2022/04/23 05:07:48;;;;;;;12.30;3.42;;;;;;;12.86;32.24;99402.44;5081718;27;20039;-82
2022/04/23 05:10:14;;;;;;;8.52;1.95;;;;;;;13.00;31.83;99403.88;5081865;27;20050;-79
2022/04/23 05:12:40;;;;;;;10.40;2.20;;;;;;;13.07;30.59;99396.13;5115658;27;20046;-83
2022/04/23 05:15:06;;;;;;;13.30;2.50;;;;;;;13.23;31.10;99399.16;5098869;27;20466;-79
2022/04/23 05:17:32;;;;;;;14.73;2.78;;;;;;;13.35;30.44;99408.81;5115594;27;20051;-79
2022/04/23 05:19:58;;;;;;;13.60;2.28;;;;;;;13.43;29.85;99399.22;5114697;27;20062;-80
2022/04/23 05:22:24;;;;;;;11.90;2.08;;;;;;;13.54;30.09;99394.56;5081093;27;20123;-82
2022/04/23 05:24:50;;;;;;;16.33;2.92;;;;;;;13.70;29.90;99391.31;5081686;27;20094;-80
2022/04/23 05:27:15;;;;;;;10.68;2.20;;;;;;;13.82;29.47;99395.53;5133562;27;20039;-78
2022/04/23 05:29:41;;;;;;;6.00;1.92;;;;;;;13.80;28.40;99397.53;5097928;28;20034;-81
2022/04/23 05:32:07;;;;;;;10.60;2.10;;;;;;;13.82;28.19;99400.06;5096527;27;20413;-78
2022/04/23 05:34:34;;;;;;;7.68;2.03;;;;;;;13.81;28.58;99393.00;5132420;27;20134;-82
2022/04/23 05:37:01;;;;;;;5.32;1.73;;;;;;;13.80;28.36;99386.78;5133360;27;20043;-78
2022/04/23 05:39:27;;;;;;;5.60;1.80;;;;;;;13.97;27.85;99403.19;5133373;27;20039;-81
2022/04/23 05:41:52;;;;;;;8.20;1.85;;;;;;;14.04;27.63;99404.31;5133348;27;20383;-84
2022/04/23 05:44:18;;;;;;;11.25;3.08;;;;;;;14.28;27.48;99407.34;5097897;28;20094;-78
2022/04/23 05:46:44;;;;;;;4.25;1.90;;;;;;;14.42;27.15;99386.38;5136124;28;20039;-79
2022/04/23 05:49:10;;;;;;;6.10;2.67;;;;;;;14.52;27.39;99398.00;5116690;28;20076;-82
2022/04/23 05:51:36;;;;;;;8.48;2.78;;;;;;;14.68;26.97;99386.63;5101084;28;20409;-80
2022/04/23 05:54:02;;;;;;;15.00;2.63;;;;;;;14.89;26.33;99380.97;5098135;28;20110;-82
2022/04/23 05:56:28;;;;;;;6.70;2.95;;;;;;;15.00;25.96;99396.94;5114985;28;20049;-80
2022/04/23 05:58:54;;;;;;;16.30;2.47;;;;;;;15.12;26.37;99398.44;5133579;28;20397;-82
2022/04/23 06:01:19;;;;;;;7.47;2.83;;;;;;;15.32;26.37;99390.25;5097539;28;20138;-80
2022/04/23 06:03:45;;;;;;;7.88;2.45;;;;;;;15.25;25.60;99385.47;5132129;28;20070;-79
2022/04/23 06:06:11;;;;;;;12.32;2.40;;;;;;;15.26;25.47;99397.91;5098139;28;20054;-82
2022/04/23 06:08:41;;;;;;;8.93;2.20;;;;;;;15.36;25.44;99392.47;5114764;28;20509;-81
2022/04/23 06:11:08;;;;;;;20.73;2.17;;;;;;;15.20;25.11;99385.06;5097895;28;20043;-81
2022/04/23 06:13:34;;;;;;;8.85;2.00;;;;;;;15.34;25.35;99388.22;5114456;28;20517;-80
2022/04/23 06:16:00;;;;;;;8.57;2.10;;;;;;;15.53;25.25;99388.09;5114433;28;20072;-80
2022/04/23 06:18:26;;;;;;;6.82;2.17;;;;;;;15.79;25.75;99380.94;5096639;28;20043;-81
2022/04/23 06:20:52;;;;;;;13.98;2.35;;;;;;;15.89;25.23;99377.34;5114604;28;20054;-79
2022/04/23 06:23:18;;;;;;;11.13;2.03;;;;;;;16.02;25.41;99372.38;5132716;28;20039;-78
2022/04/23 06:25:44;;;;;;;3.75;2.08;;;;;;;16.10;25.42;99375.16;5114470;28;20046;-79
2022/04/23 06:28:10;;;;;;;34.35;3.13;;;;;;;16.20;24.06;99373.19;5097282;28;20545;-81
2022/04/23 06:30:37;;;;;;;3.00;1.70;;;;;;;16.26;25.06;99369.88;5111988;28;20130;-81
2022/04/23 06:33:04;;;;;;;13.70;3.08;;;;;;;16.36;24.23;99369.78;5093415;28;20562;-82
2022/04/23 06:35:30;;;;;;;7.82;2.25;;;;;;;16.31;24.05;99374.78;5093437;28;20138;-85
2022/04/23 06:37:57;;;;;;;13.57;2.30;;;;;;;16.46;24.50;99375.03;5112413;28;20040;-77
2022/04/23 06:40:23;;;;;;;4.68;2.08;;;;;;;16.72;24.63;99375.84;5111558;28;20573;-81
2022/04/23 06:42:49;;;;;;;4.97;1.88;;;;;;;16.94;24.26;99373.63;5081200;27;20043;-83
2022/04/23 06:45:19;;;;;;;6.78;1.90;;;;;;;16.91;23.11;99360.47;5119152;27;20051;-79
2022/04/23 06:47:45;;;;;;;3.97;1.98;;;;;;;16.82;23.95;99374.94;5118355;27;20413;-77
2022/04/23 06:50:11;;;;;;;2.95;1.60;;;;;;;17.00;23.77;99370.28;5100517;27;20164;-76
2022/04/23 06:52:37;;;;;;;14.57;2.67;;;;;;;17.12;22.94;99368.97;5083939;27;20035;-76
2022/04/23 06:55:04;;;;;;;3.40;2.00;;;;;;;17.18;23.17;99381.81;5136371;27;20039;-78
2022/04/23 06:57:30;;;;;;;3.90;1.88;;;;;;;17.40;23.18;99374.09;5135994;27;20087;-82
2022/04/23 07:00:00;;;;;;;2.33;1.70;;;;;;;17.45;22.17;99378.03;5100837;27;20035;-82
2022/04/23 07:02:26;;;;;;;3.17;1.60;;;;;;;17.37;22.28;99364.47;5100954;27;20047;-79
2022/04/23 07:04:52;;;;;;;3.72;1.60;;;;;;;17.50;22.52;99373.97;5095375;28;20105;-79
2022/04/23 07:07:17;;;;;;;4.47;1.85;;;;;;;16.62;21.73;99363.50;5115868;28;20474;-78
2022/04/23 07:09:43;;;;;;;3.20;1.80;;;;;;;16.80;22.57;99372.38;5080304;28;20039;-79
2022/04/23 07:12:11;;;;;;;7.45;2.00;;;;;;;17.08;22.37;99359.50;5063571;28;20046;-79
2022/04/23 07:14:38;;;;;;;3.38;1.90;;;;;;;17.21;21.73;99365.28;5097115;28;20032;-77
2022/04/23 07:17:04;;;;;;;4.22;1.75;;;;;;;17.23;22.48;99365.97;5097114;28;20031;-78
2022/04/23 07:19:30;;;;;;;6.13;2.10;;;;;;;17.30;22.10;99359.88;5063120;28;20048;-77
2022/04/23 07:21:56;;;;;;;5.43;1.90;;;;;;;16.86;22.01;99360.94;5097341;28;20047;-78
2022/04/23 07:24:22;;;;;;;3.05;1.63;;;;;;;17.03;22.26;99366.41;5114734;28;20100;-78
2022/04/23 07:26:48;;;;;;;6.60;1.50;;;;;;;17.04;22.23;99360.84;5096461;28;20043;-78
2022/04/23 07:29:14;;;;;;;7.65;2.10;;;;;;;17.19;22.47;99367.31;5080155;28;20093;-78
2022/04/23 07:31:40;;;;;;;5.55;2.20;;;;;;;17.46;22.32;99357.25;5115125;28;20043;-80
2022/04/23 07:39:36;;;;;;;5.90;1.95;;;;;;;17.87;21.52;99354.59;5097020;28;20127;-80
2022/04/23 07:42:04;;;;;;;9.82;2.10;;;;;;;18.29;21.07;99361.66;5096793;28;20441;-80
2022/04/23 07:44:30;;;;;;;19.02;2.28;;;;;;;18.40;19.94;99353.19;5079603;28;20054;-81
2022/04/23 07:46:56;;;;;;;13.50;1.77;;;;;;;18.68;19.47;99354.44;5079808;28;20504;-78
2022/04/23 07:49:22;;;;;;;13.63;1.67;;;;;;;18.85;19.16;99359.84;5096196;28;20051;-79
2022/04/23 07:51:49;;;;;;;8.07;1.90;;;;;;;19.13;19.19;99352.91;5079678;28;20043;-80
2022/04/23 07:54:15;;;;;;;2.88;1.50;;;;;;;19.30;19.02;99347.44;5078694;28;20040;-78
2022/04/23 07:56:41;;;;;;;1.65;1.45;;;;;;;19.35;19.10;99347.72;5114712;28;20615;-79
2022/04/23 07:59:08;;;;;;;6.47;1.80;;;;;;;19.68;19.19;99352.97;5096222;28;20051;-79
2022/04/23 08:01:34;;;;;;;8.25;1.83;;;;;;;19.87;18.99;99337.03;5063205;28;20051;-79
2022/04/23 08:04:03;;;;;;;11.02;1.90;;;;;;;19.83;18.22;99343.00;5058973;28;20078;-79
2022/04/23 08:06:30;;;;;;;4.50;1.83;;;;;;;19.85;18.11;99343.66;5075704;28;20517;-79
2022/04/23 08:08:56;;;;;;;2.10;1.55;;;;;;;19.92;18.47;99341.91;5076158;28;20060;-77
2022/04/23 08:11:25;;;;;;;12.10;1.90;;;;;;;20.10;18.39;99334.28;5092155;28;20055;-78
2022/04/23 08:13:51;;;;;;;2.85;1.70;;;;;;;20.28;18.18;99336.66;5094357;28;20051;-80
2022/04/23 08:16:17;;;;;;;4.05;1.70;;;;;;;20.42;18.09;99348.53;5100932;28;20048;-80
2022/04/23 08:18:44;;;;;;;8.75;2.17;;;;;;;20.64;17.98;99335.94;5092963;28;20146;-80
2022/04/23 08:21:10;;;;;;;4.07;1.73;;;;;;;20.28;16.91;99335.81;5113751;28;20040;-79
2022/04/23 08:23:36;;;;;;;18.25;2.45;;;;;;;20.06;17.33;99346.53;5115072;28;20380;-79
2022/04/23 08:26:05;;;;;;;4.65;1.90;;;;;;;20.10;18.08;99344.28;5096627;28;20142;-80
2022/04/23 08:31:16;;;;;;;10.25;2.15;;;;;;;20.18;17.85;99349.63;5096650;28;20040;-80
2022/04/23 08:33:57;;;;;;;8.05;1.92;;;;;;;20.33;17.52;99347.78;5079779;28;20046;-77
2022/04/23 08:36:26;;;;;;;21.75;2.70;;;;;;;20.20;17.41;99338.56;5096958;28;20429;-80
2022/04/23 08:38:55;;;;;;;10.98;2.60;;;;;;;20.22;19.36;99348.22;5113204;28;20051;-80
2022/04/23 08:41:25;;;;;;;;;;;;;;;20.23;18.65;99349.06;5079372;28;20406;-77
2022/04/23 08:43:51;;;;;;;14.02;2.70;;;;;;;20.38;18.60;99349.94;5096168;28;19916;-77
2022/04/23 08:46:17;;;;;;;8.82;2.38;;;;;;;20.41;19.10;99354.16;5096412;28;20505;-79
2022/04/23 08:48:49;;;;;;;11.00;2.42;;;;;;;20.44;19.31;99367.38;5112645;28;20472;-79
2022/04/23 08:51:20;;;;;;;13.65;2.88;;;;;;;20.41;19.41;99341.41;5095827;28;20040;-79
2022/04/23 08:53:47;;;;;;;8.20;2.40;;;;;;;20.43;19.09;99366.53;5100551;28;20051;-78
2022/04/23 08:56:13;;;;;;;5.97;3.35;;;;;;;20.26;18.98;99354.97;5092160;28;20032;-80
2022/04/23 08:58:39;;;;;;;5.88;2.00;;;;;;;20.12;19.39;99364.78;5058780;28;20154;-77
2022/04/23 09:01:06;;;;;;;5.78;1.90;;;;;;;20.10;19.02;99372.25;5093582;28;20044;-79
2022/04/23 09:03:32;;;;;;;7.25;1.70;;;;;;;20.10;19.09;99369.56;5075182;28;20155;-78
2022/04/23 09:05:58;;;;;;;4.95;2.05;;;;;;;20.35;18.79;99367.47;5091840;28;20127;-78
2022/04/23 09:08:26;;;;;;;6.15;2.05;;;;;;;20.66;18.79;99361.03;5075327;28;20070;-79
2022/04/23 09:10:54;;;;;;;1.92;1.83;;;;;;;21.02;18.25;99369.25;5075429;28;20055;-78
2022/04/23 09:13:28;;;;;;;6.00;1.80;;;;;;;20.93;18.54;99351.38;5091970;28;20079;-78
2022/04/23 09:24:48;;;;;;;8.48;2.40;;;;;;;21.43;18.02;99363.28;5093103;28;20130;-80
2022/04/23 09:27:14;;;;;;;5.45;2.10;;;;;;;21.34;18.31;99369.91;5075255;28;20055;-77
2022/04/23 09:29:42;;;;;;;8.10;2.67;;;;;;;21.32;18.23;99371.91;5091761;28;20039;-78
2022/04/23 09:32:09;;;;;;;15.07;2.50;;;;;;;21.43;18.19;99366.00;5092309;28;20409;-79
2022/04/23 09:34:36;;;;;;;9.05;2.15;;;;;;;21.33;18.35;99370.94;5075092;28;20121;-79
2022/04/23 09:37:02;;;;;;;10.30;2.95;;;;;;;21.23;18.42;99356.75;5092466;28;20117;-77
2022/04/23 09:39:34;;;;;;;21.67;3.65;;;;;;;21.38;18.64;99375.78;5093012;28;20052;-77
2022/04/23 09:42:30;;;;;;;38.20;5.78;;;;;;;20.53;19.34;99383.41;5091981;28;20120;-77
2022/04/23 09:44:56;;;;;;;25.20;5.25;;;;;;;20.45;19.44;99375.31;5045124;28;20460;-80
2022/04/23 09:47:30;;;;;;;18.50;3.92;;;;;;;20.44;19.66;99376.34;5091682;28;20051;-77
2022/04/23 09:49:56;;;;;;;10.80;3.60;;;;;;;20.60;19.48;99384.34;5093088;28;20040;-77
2022/04/23 09:52:30;;;;;;;14.68;3.65;;;;;;;20.55;19.63;99384.06;5074664;28;20055;-78
2022/04/23 09:54:59;;;;;;;11.48;3.67;;;;;;;20.61;19.26;99401.47;5091846;28;20047;-78
2022/04/23 09:57:27;;;;;;;16.50;3.85;;;;;;;20.68;19.25;99379.84;5091603;28;20044;-78
2022/04/23 09:59:54;;;;;;;10.63;3.95;;;;;;;20.80;18.88;99386.53;5074844;28;20418;-78
2022/04/23 10:02:22;;;;;;;10.18;3.90;;;;;;;20.61;19.28;99398.75;5074677;28;20048;-79
2022/04/23 10:04:50;;;;;;;12.40;3.83;;;;;;;20.39;19.37;99405.94;5058013;28;20052;-77
2022/04/23 10:07:18;;;;;;;16.15;3.15;;;;;;;20.25;19.27;99404.03;5058314;28;20044;-78
2022/04/23 10:09:48;;;;;;;17.02;3.28;;;;;;;20.18;19.49;99384.91;5075060;28;20432;-78
2022/04/23 10:12:19;;;;;;;8.25;2.90;;;;;;;20.33;19.46;99406.66;5091405;28;20079;-77
2022/04/23 10:15:05;;;;;;;9.23;2.85;;;;;;;19.77;19.45;99400.69;5084103;28;20514;-76
2022/04/23 10:17:31;;;;;;;16.02;2.60;;;;;;;19.44;20.17;99403.56;5094062;28;20134;-78
2022/04/23 10:19:59;;;;;;;12.38;2.83;;;;;;;19.36;20.17;99406.31;5078302;28;20056;-78
2022/04/23 10:22:39;;;;;;;10.13;2.75;;;;;;;19.33;20.44;99402.13;5095156;28;20130;-77
2022/04/23 10:25:17;;;;;;;8.43;2.53;;;;;;;19.63;20.57;99421.28;5095157;28;20109;-78
2022/04/23 10:27:45;;;;;;;6.75;3.10;;;;;;;19.77;19.98;99414.25;5078143;28;20040;-77
2022/04/23 10:30:12;;;;;;;10.80;3.33;;;;;;;19.90;20.15;99409.06;5096248;28;20048;-77
2022/04/23 10:32:41;;;;;;;12.88;3.78;;;;;;;20.25;19.75;99404.03;5094620;28;20474;-78
2022/04/23 10:35:34;;;;;;;9.15;3.35;;;;;;;20.16;19.05;99410.53;5077948;28;20051;-77
2022/04/23 10:38:16;;;;;;;5.82;3.20;;;;;;;20.69;19.02;99404.13;5076089;28;20044;-78
2022/04/23 10:40:41;;;;;;;6.53;2.85;;;;;;;20.87;18.89;99406.47;5094903;28;20050;-78
2022/04/23 10:43:15;;;;;;;5.50;2.78;;;;;;;20.47;19.36;99413.16;5077721;28;20036;-78
2022/04/23 10:45:41;;;;;;;4.80;2.60;;;;;;;20.07;19.69;99410.63;5078525;28;20134;-79
2022/04/23 10:48:24;;;;;;;12.38;2.92;;;;;;;19.89;20.12;99420.94;5061342;28;20040;-78
2022/04/23 10:51:10;;;;;;;12.75;3.10;;;;;;;19.57;20.38;99420.09;5077184;28;20062;-78
2022/04/23 10:53:39;;;;;;;6.75;3.30;;;;;;;19.28;21.17;99411.78;5061113;28;20044;-78
2022/04/23 10:56:13;;;;;;;7.88;3.42;;;;;;;19.10;21.38;99423.72;5060913;28;20059;-78
2022/04/23 10:58:40;;;;;;;11.50;3.28;;;;;;;19.15;21.53;99410.50;5061184;28;20044;-79
2022/04/23 11:01:30;;;;;;;5.30;3.00;;;;;;;19.30;21.83;99407.88;5095974;28;20055;-78
2022/04/23 11:03:56;;;;;;;12.55;3.80;;;;;;;19.38;20.79;99425.97;5094526;28;20051;-78
2022/04/23 11:12:32;;;;;;;17.08;4.28;;;;;;;19.28;20.66;99415.34;5095965;28;20072;-80
2022/04/23 11:15:00;;;;;;;10.13;4.10;;;;;;;19.16;21.07;99428.44;5077484;28;20486;-79
2022/04/23 11:17:32;;;;;;;7.72;3.47;;;;;;;18.83;21.40;99426.88;5095367;28;20620;-79
2022/04/23 11:19:59;;;;;;;8.52;3.88;;;;;;;18.54;21.34;99433.69;5060575;28;20495;-79
2022/04/23 11:22:26;;;;;;;14.77;3.33;;;;;;;18.48;21.30;99433.53;5077482;28;20179;-79
2022/04/23 11:24:57;;;;;;;8.73;3.20;;;;;;;18.34;21.53;99437.75;5077306;28;20636;-79
2022/04/23 11:27:28;;;;;;;7.10;3.17;;;;;;;18.15;21.39;99434.38;5094091;28;20040;-79
2022/04/23 11:29:55;;;;;;;6.82;2.95;;;;;;;17.81;22.01;99426.41;5093969;28;20044;-79
2022/04/23 11:32:29;;;;;;;11.18;3.42;;;;;;;17.41;22.59;99421.72;5093842;28;20392;-78
2022/04/23 11:35:00;;;;;;;15.43;3.78;;;;;;;17.23;22.81;99406.50;5095702;28;20036;-78
2022/04/23 11:37:32;;;;;;;8.90;3.47;;;;;;;17.35;22.91;99425.09;5093813;28;20067;-78
2022/04/23 11:40:10;;;;;;;10.85;4.00;;;;;;;16.96;23.72;99412.97;5076687;28;20044;-78
2022/04/23 11:42:40;;;;;;;6.78;3.40;;;;;;;17.03;24.13;99425.81;5095269;28;20403;-79
2022/04/23 11:45:07;;;;;;;8.70;4.50;;;;;;;16.92;23.75;99422.38;5094768;28;20056;-78
2022/04/23 11:47:36;;;;;;;16.58;5.50;;;;;;;16.96;23.90;99431.88;5093597;28;20048;-78
2022/04/23 11:50:16;;;;;;;16.10;4.88;;;;;;;16.88;23.82;99422.88;5094803;28;20044;-78
2022/04/23 11:52:44;;;;;;;9.77;5.47;;;;;;;16.74;24.76;99414.38;5093443;28;20060;-78
2022/04/23 11:55:30;;;;;;;14.00;4.28;;;;;;;16.35;25.57;99418.47;5093477;28;20051;-78
2022/04/23 11:58:01;;;;;;;27.58;4.78;;;;;;;16.06;26.29;99408.84;5077129;28;20050;-78
2022/04/23 12:00:27;;;;;;;22.67;4.03;;;;;;;15.75;26.47;99401.13;5060283;28;20047;-78
2022/04/23 12:02:54;;;;;;;10.13;3.42;;;;;;;15.54;27.19;99405.97;5078531;28;20051;-79
2022/04/23 12:05:28;;;;;;;8.15;3.70;;;;;;;15.52;27.69;99400.72;5080865;28;20497;-79